sensor_id;sensor_type;location;lat;lon;timestamp;temperature;humidity
73586;DHT22;61865;50.232;18.614;2023-04-12T00:00:06;5.10;99.90
73586;DHT22;61865;50.232;18.614;2023-04-12T00:02:30;5.00;99.90
73586;DHT22;61865;50.232;18.614;2023-04-12T00:04:55;5.00;99.90
73586;DHT22;61865;50.232;18.614;2023-04-12T00:07:18;5.00;99.90
73586;DHT22;61865;50.232;18.614;2023-04-12T00:09:40;5.00;99.90
73586;DHT22;61865;50.232;18.614;2023-04-12T00:12:03;5.10;99.90
73586;DHT22;61865;50.232;18.614;2023-04-12T00:14:25;5.00;99.90
73586;DHT22;61865;50.232;18.614;2023-04-12T00:16:47;5.10;99.90
73586;DHT22;61865;50.232;18.614;2023-04-12T00:19:09;5.10;99.90
73586;DHT22;61865;50.232;18.614;2023-04-12T00:21:31;5.00;99.90
73586;DHT22;61865;50.232;18.614;2023-04-12T00:23:55;5.00;99.90
73586;DHT22;61865;50.232;18.614;2023-04-12T00:26:17;5.00;99.90
73586;DHT22;61865;50.232;18.614;2023-04-12T00:28:41;5.00;99.90
73586;DHT22;61865;50.232;18.614;2023-04-12T00:31:03;5.00;99.90
73586;DHT22;61865;50.232;18.614;2023-04-12T00:33:25;5.00;99.90
73586;DHT22;61865;50.232;18.614;2023-04-12T00:35:47;5.10;99.90
73586;DHT22;61865;50.232;18.614;2023-04-12T00:38:09;5.10;99.90
73586;DHT22;61865;50.232;18.614;2023-04-12T00:40:32;5.10;99.90
73586;DHT22;61865;50.232;18.614;2023-04-12T00:42:54;5.10;99.90
73586;DHT22;61865;50.232;18.614;2023-04-12T00:45:16;5.10;99.90
73586;DHT22;61865;50.232;18.614;2023-04-12T00:47:39;5.10;99.90
73586;DHT22;61865;50.232;18.614;2023-04-12T00:50:03;5.10;99.90
73586;DHT22;61865;50.232;18.614;2023-04-12T00:52:25;5.10;99.90
73586;DHT22;61865;50.232;18.614;2023-04-12T00:54:53;5.10;99.90
73586;DHT22;61865;50.232;18.614;2023-04-12T00:57:17;5.10;99.90
73586;DHT22;61865;50.232;18.614;2023-04-12T00:59:39;5.10;99.90
73586;DHT22;61865;50.232;18.614;2023-04-12T01:02:01;5.20;99.90
73586;DHT22;61865;50.232;18.614;2023-04-12T01:04:23;5.10;99.90
73586;DHT22;61865;50.232;18.614;2023-04-12T01:07:01;5.10;99.90
73586;DHT22;61865;50.232;18.614;2023-04-12T01:09:32;5.10;99.90
73586;DHT22;61865;50.232;18.614;2023-04-12T01:12:01;5.00;99.90
73586;DHT22;61865;50.232;18.614;2023-04-12T01:14:34;5.00;99.90
73586;DHT22;61865;50.232;18.614;2023-04-12T01:16:59;5.00;99.90
73586;DHT22;61865;50.232;18.614;2023-04-12T01:19:36;5.00;99.90
73586;DHT22;61865;50.232;18.614;2023-04-12T01:22:11;4.90;99.90
73586;DHT22;61865;50.232;18.614;2023-04-12T01:24:42;4.80;99.90
73586;DHT22;61865;50.232;18.614;2023-04-12T01:27:09;4.90;99.90
73586;DHT22;61865;50.232;18.614;2023-04-12T01:29:37;4.80;99.90
73586;DHT22;61865;50.232;18.614;2023-04-12T01:32:02;4.80;99.90
73586;DHT22;61865;50.232;18.614;2023-04-12T01:34:27;4.80;99.90
73586;DHT22;61865;50.232;18.614;2023-04-12T01:36:50;4.80;99.90
73586;DHT22;61865;50.232;18.614;2023-04-12T01:39:13;4.90;99.90
73586;DHT22;61865;50.232;18.614;2023-04-12T01:41:39;4.80;99.90
73586;DHT22;61865;50.232;18.614;2023-04-12T01:44:01;4.80;99.90
73586;DHT22;61865;50.232;18.614;2023-04-12T01:46:25;4.80;99.90
73586;DHT22;61865;50.232;18.614;2023-04-12T01:48:48;4.80;99.90
73586;DHT22;61865;50.232;18.614;2023-04-12T01:51:16;4.80;99.90
73586;DHT22;61865;50.232;18.614;2023-04-12T01:53:46;4.80;99.90
73586;DHT22;61865;50.232;18.614;2023-04-12T01:56:09;4.70;99.90
73586;DHT22;61865;50.232;18.614;2023-04-12T01:58:33;4.60;99.90
73586;DHT22;61865;50.232;18.614;2023-04-12T02:00:56;4.70;99.90
73586;DHT22;61865;50.232;18.614;2023-04-12T02:03:22;4.60;99.90
73586;DHT22;61865;50.232;18.614;2023-04-12T02:05:44;4.60;99.90
73586;DHT22;61865;50.232;18.614;2023-04-12T02:08:06;4.60;99.90
73586;DHT22;61865;50.232;18.614;2023-04-12T02:10:29;4.70;99.90
73586;DHT22;61865;50.232;18.614;2023-04-12T02:12:50;4.70;99.90
73586;DHT22;61865;50.232;18.614;2023-04-12T02:15:13;4.60;99.90
73586;DHT22;61865;50.232;18.614;2023-04-12T02:17:35;4.60;99.90
73586;DHT22;61865;50.232;18.614;2023-04-12T02:19:59;4.60;99.90
73586;DHT22;61865;50.232;18.614;2023-04-12T02:22:21;4.50;99.90
73586;DHT22;61865;50.232;18.614;2023-04-12T02:24:42;4.60;99.90
73586;DHT22;61865;50.232;18.614;2023-04-12T02:27:05;4.60;99.90
73586;DHT22;61865;50.232;18.614;2023-04-12T02:29:27;4.50;99.90
73586;DHT22;61865;50.232;18.614;2023-04-12T02:31:48;4.40;99.90
73586;DHT22;61865;50.232;18.614;2023-04-12T02:34:10;4.50;99.90
73586;DHT22;61865;50.232;18.614;2023-04-12T02:36:36;4.50;99.90
73586;DHT22;61865;50.232;18.614;2023-04-12T02:38:58;4.50;99.90
73586;DHT22;61865;50.232;18.614;2023-04-12T02:41:21;4.40;99.90
73586;DHT22;61865;50.232;18.614;2023-04-12T02:43:43;4.40;99.90
73586;DHT22;61865;50.232;18.614;2023-04-12T02:46:05;4.40;99.90
73586;DHT22;61865;50.232;18.614;2023-04-12T02:48:27;4.30;99.90
73586;DHT22;61865;50.232;18.614;2023-04-12T02:50:49;4.20;99.90
73586;DHT22;61865;50.232;18.614;2023-04-12T02:53:14;4.20;99.90
73586;DHT22;61865;50.232;18.614;2023-04-12T02:55:37;4.10;99.90
73586;DHT22;61865;50.232;18.614;2023-04-12T02:57:59;4.10;99.90
73586;DHT22;61865;50.232;18.614;2023-04-12T03:00:22;4.00;99.90
73586;DHT22;61865;50.232;18.614;2023-04-12T03:02:43;4.00;99.90
73586;DHT22;61865;50.232;18.614;2023-04-12T03:05:06;3.90;99.90
73586;DHT22;61865;50.232;18.614;2023-04-12T03:07:28;3.80;99.90
73586;DHT22;61865;50.232;18.614;2023-04-12T03:09:51;3.70;99.90
73586;DHT22;61865;50.232;18.614;2023-04-12T03:12:14;3.80;99.90
73586;DHT22;61865;50.232;18.614;2023-04-12T03:14:35;3.80;99.90
73586;DHT22;61865;50.232;18.614;2023-04-12T03:16:57;3.80;99.90
73586;DHT22;61865;50.232;18.614;2023-04-12T03:19:19;3.80;99.90
73586;DHT22;61865;50.232;18.614;2023-04-12T03:21:41;3.80;99.90
73586;DHT22;61865;50.232;18.614;2023-04-12T03:24:04;3.80;99.90
73586;DHT22;61865;50.232;18.614;2023-04-12T03:26:27;3.90;99.90
73586;DHT22;61865;50.232;18.614;2023-04-12T03:28:49;3.80;99.90
73586;DHT22;61865;50.232;18.614;2023-04-12T03:31:11;3.70;99.90
73586;DHT22;61865;50.232;18.614;2023-04-12T03:33:33;3.70;99.90
73586;DHT22;61865;50.232;18.614;2023-04-12T03:35:55;3.70;99.90
73586;DHT22;61865;50.232;18.614;2023-04-12T03:38:18;3.60;99.90
73586;DHT22;61865;50.232;18.614;2023-04-12T03:40:40;3.60;99.90
73586;DHT22;61865;50.232;18.614;2023-04-12T03:43:03;3.60;99.90
73586;DHT22;61865;50.232;18.614;2023-04-12T03:45:25;3.50;99.90
73586;DHT22;61865;50.232;18.614;2023-04-12T03:47:47;3.40;99.90
73586;DHT22;61865;50.232;18.614;2023-04-12T03:50:09;3.40;99.90
73586;DHT22;61865;50.232;18.614;2023-04-12T03:52:31;3.30;99.90
73586;DHT22;61865;50.232;18.614;2023-04-12T03:54:53;3.20;99.90
73586;DHT22;61865;50.232;18.614;2023-04-12T03:57:15;3.10;99.90
73586;DHT22;61865;50.232;18.614;2023-04-12T03:59:39;3.10;99.90
73586;DHT22;61865;50.232;18.614;2023-04-12T04:02:01;2.90;99.90
73586;DHT22;61865;50.232;18.614;2023-04-12T04:04:23;2.80;99.90
73586;DHT22;61865;50.232;18.614;2023-04-12T04:06:45;2.80;99.90
73586;DHT22;61865;50.232;18.614;2023-04-12T04:09:08;2.60;99.90
73586;DHT22;61865;50.232;18.614;2023-04-12T04:11:30;2.60;99.90
73586;DHT22;61865;50.232;18.614;2023-04-12T04:13:52;2.50;99.90
73586;DHT22;61865;50.232;18.614;2023-04-12T04:16:15;2.50;99.90
73586;DHT22;61865;50.232;18.614;2023-04-12T04:18:37;2.40;99.90
73586;DHT22;61865;50.232;18.614;2023-04-12T04:20:59;2.30;99.90
73586;DHT22;61865;50.232;18.614;2023-04-12T04:23:21;2.30;99.90
73586;DHT22;61865;50.232;18.614;2023-04-12T04:25:43;2.30;99.90
73586;DHT22;61865;50.232;18.614;2023-04-12T04:28:05;2.40;99.90
73586;DHT22;61865;50.232;18.614;2023-04-12T04:30:27;2.50;99.90
73586;DHT22;61865;50.232;18.614;2023-04-12T04:32:51;2.60;99.90
73586;DHT22;61865;50.232;18.614;2023-04-12T04:35:14;2.70;99.90
73586;DHT22;61865;50.232;18.614;2023-04-12T04:37:36;2.80;99.90
73586;DHT22;61865;50.232;18.614;2023-04-12T04:39:58;3.00;99.90
73586;DHT22;61865;50.232;18.614;2023-04-12T04:42:20;3.10;99.90
73586;DHT22;61865;50.232;18.614;2023-04-12T04:44:42;3.30;99.90
73586;DHT22;61865;50.232;18.614;2023-04-12T04:47:04;3.30;99.90
73586;DHT22;61865;50.232;18.614;2023-04-12T04:49:27;3.50;99.90
73586;DHT22;61865;50.232;18.614;2023-04-12T04:51:49;3.60;99.90
73586;DHT22;61865;50.232;18.614;2023-04-12T04:54:11;3.70;99.90
73586;DHT22;61865;50.232;18.614;2023-04-12T04:56:36;3.70;99.90
73586;DHT22;61865;50.232;18.614;2023-04-12T04:58:59;3.80;99.90
73586;DHT22;61865;50.232;18.614;2023-04-12T05:01:21;4.00;99.90
73586;DHT22;61865;50.232;18.614;2023-04-12T05:03:45;4.00;99.90
73586;DHT22;61865;50.232;18.614;2023-04-12T05:06:10;4.00;99.90
73586;DHT22;61865;50.232;18.614;2023-04-12T05:08:32;4.10;99.90
73586;DHT22;61865;50.232;18.614;2023-04-12T05:10:55;4.20;99.90
73586;DHT22;61865;50.232;18.614;2023-04-12T05:13:17;4.20;99.90
73586;DHT22;61865;50.232;18.614;2023-04-12T05:15:39;4.30;99.90
73586;DHT22;61865;50.232;18.614;2023-04-12T05:18:01;4.30;99.90
73586;DHT22;61865;50.232;18.614;2023-04-12T05:20:23;4.30;99.90
73586;DHT22;61865;50.232;18.614;2023-04-12T05:22:46;4.20;99.90
73586;DHT22;61865;50.232;18.614;2023-04-12T05:25:10;4.40;99.90
73586;DHT22;61865;50.232;18.614;2023-04-12T05:27:32;4.40;99.90
73586;DHT22;61865;50.232;18.614;2023-04-12T05:29:55;4.50;99.90
73586;DHT22;61865;50.232;18.614;2023-04-12T05:32:17;4.60;99.90
73586;DHT22;61865;50.232;18.614;2023-04-12T05:34:39;4.70;99.90
73586;DHT22;61865;50.232;18.614;2023-04-12T05:37:03;4.80;99.90
73586;DHT22;61865;50.232;18.614;2023-04-12T05:39:27;4.80;99.90
73586;DHT22;61865;50.232;18.614;2023-04-12T05:41:52;4.80;99.90
73586;DHT22;61865;50.232;18.614;2023-04-12T05:44:13;4.90;99.90
73586;DHT22;61865;50.232;18.614;2023-04-12T05:46:35;4.90;99.90
73586;DHT22;61865;50.232;18.614;2023-04-12T05:48:57;5.00;99.90
73586;DHT22;61865;50.232;18.614;2023-04-12T05:51:19;5.00;99.90
73586;DHT22;61865;50.232;18.614;2023-04-12T05:53:41;5.20;99.90
73586;DHT22;61865;50.232;18.614;2023-04-12T05:56:06;5.10;99.90
73586;DHT22;61865;50.232;18.614;2023-04-12T05:58:28;5.10;99.90
73586;DHT22;61865;50.232;18.614;2023-04-12T06:00:50;5.10;99.90
73586;DHT22;61865;50.232;18.614;2023-04-12T06:03:13;5.10;99.90
73586;DHT22;61865;50.232;18.614;2023-04-12T06:05:35;5.10;99.90
73586;DHT22;61865;50.232;18.614;2023-04-12T06:07:57;5.10;99.90
73586;DHT22;61865;50.232;18.614;2023-04-12T06:10:20;5.30;99.90
73586;DHT22;61865;50.232;18.614;2023-04-12T06:12:44;5.20;99.90
73586;DHT22;61865;50.232;18.614;2023-04-12T06:15:06;5.20;99.90
73586;DHT22;61865;50.232;18.614;2023-04-12T06:17:28;5.30;99.90
73586;DHT22;61865;50.232;18.614;2023-04-12T06:19:50;5.10;99.90
73586;DHT22;61865;50.232;18.614;2023-04-12T06:22:12;5.00;99.90
73586;DHT22;61865;50.232;18.614;2023-04-12T06:24:34;5.00;99.90
73586;DHT22;61865;50.232;18.614;2023-04-12T06:26:56;5.10;99.90
73586;DHT22;61865;50.232;18.614;2023-04-12T06:29:19;5.20;99.90
73586;DHT22;61865;50.232;18.614;2023-04-12T06:31:41;5.50;99.90
73586;DHT22;61865;50.232;18.614;2023-04-12T06:34:03;5.60;99.90
73586;DHT22;61865;50.232;18.614;2023-04-12T06:36:26;5.60;99.90
73586;DHT22;61865;50.232;18.614;2023-04-12T06:38:48;5.90;99.90
73586;DHT22;61865;50.232;18.614;2023-04-12T06:41:11;6.00;99.90
73586;DHT22;61865;50.232;18.614;2023-04-12T06:43:33;5.90;99.90
73586;DHT22;61865;50.232;18.614;2023-04-12T06:45:56;5.80;99.90
73586;DHT22;61865;50.232;18.614;2023-04-12T06:48:19;5.70;99.90
73586;DHT22;61865;50.232;18.614;2023-04-12T06:50:41;5.60;99.90
73586;DHT22;61865;50.232;18.614;2023-04-12T06:53:03;5.70;99.90
73586;DHT22;61865;50.232;18.614;2023-04-12T06:55:25;5.90;99.90
73586;DHT22;61865;50.232;18.614;2023-04-12T06:57:48;5.90;99.90
73586;DHT22;61865;50.232;18.614;2023-04-12T07:00:12;5.80;99.90
73586;DHT22;61865;50.232;18.614;2023-04-12T07:02:36;5.70;99.90
73586;DHT22;61865;50.232;18.614;2023-04-12T07:04:58;5.80;99.90
73586;DHT22;61865;50.232;18.614;2023-04-12T07:07:20;5.80;99.90
73586;DHT22;61865;50.232;18.614;2023-04-12T07:09:42;5.90;99.90
73586;DHT22;61865;50.232;18.614;2023-04-12T07:12:04;6.00;99.90
73586;DHT22;61865;50.232;18.614;2023-04-12T07:14:27;6.10;99.90
73586;DHT22;61865;50.232;18.614;2023-04-12T07:16:49;6.20;99.90
73586;DHT22;61865;50.232;18.614;2023-04-12T07:19:12;6.30;99.90
73586;DHT22;61865;50.232;18.614;2023-04-12T07:21:34;6.20;99.90
73586;DHT22;61865;50.232;18.614;2023-04-12T07:23:56;6.30;99.90
73586;DHT22;61865;50.232;18.614;2023-04-12T07:26:18;6.40;99.90
73586;DHT22;61865;50.232;18.614;2023-04-12T07:28:41;6.30;99.90
73586;DHT22;61865;50.232;18.614;2023-04-12T07:31:06;6.30;99.90
73586;DHT22;61865;50.232;18.614;2023-04-12T07:33:28;6.20;99.90
73586;DHT22;61865;50.232;18.614;2023-04-12T07:35:51;6.30;99.90
73586;DHT22;61865;50.232;18.614;2023-04-12T07:38:13;6.30;99.90
73586;DHT22;61865;50.232;18.614;2023-04-12T07:40:35;6.40;99.90
73586;DHT22;61865;50.232;18.614;2023-04-12T07:42:57;6.50;99.90
73586;DHT22;61865;50.232;18.614;2023-04-12T07:45:19;6.50;99.90
73586;DHT22;61865;50.232;18.614;2023-04-12T07:47:42;6.60;99.90
73586;DHT22;61865;50.232;18.614;2023-04-12T07:50:05;6.70;99.90
73586;DHT22;61865;50.232;18.614;2023-04-12T07:52:29;7.00;99.90
73586;DHT22;61865;50.232;18.614;2023-04-12T07:54:51;7.30;99.90
73586;DHT22;61865;50.232;18.614;2023-04-12T07:57:15;7.50;99.90
73586;DHT22;61865;50.232;18.614;2023-04-12T07:59:39;7.80;99.90
73586;DHT22;61865;50.232;18.614;2023-04-12T08:02:01;7.80;99.90
73586;DHT22;61865;50.232;18.614;2023-04-12T08:04:23;7.70;99.90
73586;DHT22;61865;50.232;18.614;2023-04-12T08:06:45;7.80;99.90
73586;DHT22;61865;50.232;18.614;2023-04-12T08:09:09;7.80;99.90
73586;DHT22;61865;50.232;18.614;2023-04-12T08:11:31;8.00;99.90
73586;DHT22;61865;50.232;18.614;2023-04-12T08:13:54;8.00;99.90
73586;DHT22;61865;50.232;18.614;2023-04-12T08:16:19;8.20;99.90
73586;DHT22;61865;50.232;18.614;2023-04-12T08:18:42;8.20;99.90
73586;DHT22;61865;50.232;18.614;2023-04-12T08:21:05;8.10;99.90
73586;DHT22;61865;50.232;18.614;2023-04-12T08:23:27;8.30;99.90
73586;DHT22;61865;50.232;18.614;2023-04-12T08:25:51;8.60;99.90
73586;DHT22;61865;50.232;18.614;2023-04-12T08:28:20;8.90;99.90
73586;DHT22;61865;50.232;18.614;2023-04-12T08:30:42;8.70;99.90
73586;DHT22;61865;50.232;18.614;2023-04-12T08:33:06;8.70;99.90
73586;DHT22;61865;50.232;18.614;2023-04-12T08:35:28;9.00;99.90
73586;DHT22;61865;50.232;18.614;2023-04-12T08:37:49;9.20;99.90
73586;DHT22;61865;50.232;18.614;2023-04-12T08:40:12;9.60;99.90
73586;DHT22;61865;50.232;18.614;2023-04-12T08:42:35;9.80;99.90
73586;DHT22;61865;50.232;18.614;2023-04-12T08:44:58;10.00;99.90
73586;DHT22;61865;50.232;18.614;2023-04-12T08:47:20;10.20;99.90
73586;DHT22;61865;50.232;18.614;2023-04-12T08:49:43;10.40;99.90
73586;DHT22;61865;50.232;18.614;2023-04-12T08:52:07;10.40;99.90
73586;DHT22;61865;50.232;18.614;2023-04-12T08:54:29;10.60;99.90
73586;DHT22;61865;50.232;18.614;2023-04-12T08:56:51;10.90;99.90
73586;DHT22;61865;50.232;18.614;2023-04-12T08:59:15;11.00;98.90
73586;DHT22;61865;50.232;18.614;2023-04-12T09:01:40;11.20;99.90
73586;DHT22;61865;50.232;18.614;2023-04-12T09:04:05;11.20;96.70
73586;DHT22;61865;50.232;18.614;2023-04-12T09:06:28;11.10;99.90
73586;DHT22;61865;50.232;18.614;2023-04-12T09:08:51;11.20;99.10
73586;DHT22;61865;50.232;18.614;2023-04-12T09:11:21;11.00;99.90
73586;DHT22;61865;50.232;18.614;2023-04-12T09:13:43;11.10;99.90
73586;DHT22;61865;50.232;18.614;2023-04-12T09:16:08;11.60;98.90
73586;DHT22;61865;50.232;18.614;2023-04-12T09:18:30;11.90;88.80
73586;DHT22;61865;50.232;18.614;2023-04-12T09:21:10;12.00;85.50
73586;DHT22;61865;50.232;18.614;2023-04-12T09:23:32;11.80;82.20
73586;DHT22;61865;50.232;18.614;2023-04-12T09:25:55;11.60;88.90
73586;DHT22;61865;50.232;18.614;2023-04-12T09:28:19;11.50;90.00
73586;DHT22;61865;50.232;18.614;2023-04-12T09:30:42;11.60;91.70
73586;DHT22;61865;50.232;18.614;2023-04-12T09:33:11;11.60;86.70
73586;DHT22;61865;50.232;18.614;2023-04-12T09:35:34;11.70;97.20
73586;DHT22;61865;50.232;18.614;2023-04-12T09:37:57;11.90;85.50
73586;DHT22;61865;50.232;18.614;2023-04-12T09:40:22;12.20;97.10
73586;DHT22;61865;50.232;18.614;2023-04-12T09:42:52;12.50;95.30
73586;DHT22;61865;50.232;18.614;2023-04-12T09:45:25;12.80;85.40
73586;DHT22;61865;50.232;18.614;2023-04-12T09:47:48;13.00;82.30
73586;DHT22;61865;50.232;18.614;2023-04-12T09:50:19;13.30;81.00
73586;DHT22;61865;50.232;18.614;2023-04-12T09:52:43;13.30;78.00
73586;DHT22;61865;50.232;18.614;2023-04-12T09:55:08;13.60;80.00
73586;DHT22;61865;50.232;18.614;2023-04-12T09:57:30;13.50;73.50
73586;DHT22;61865;50.232;18.614;2023-04-12T09:59:53;13.40;74.30
73586;DHT22;61865;50.232;18.614;2023-04-12T10:02:25;13.80;74.10
73586;DHT22;61865;50.232;18.614;2023-04-12T10:04:47;14.20;71.30
73586;DHT22;61865;50.232;18.614;2023-04-12T10:07:11;14.30;68.40
73586;DHT22;61865;50.232;18.614;2023-04-12T10:09:34;13.90;63.20
73586;DHT22;61865;50.232;18.614;2023-04-12T10:11:59;13.40;68.40
73586;DHT22;61865;50.232;18.614;2023-04-12T10:14:22;12.10;69.00
73586;DHT22;61865;50.232;18.614;2023-04-12T10:16:50;11.90;71.40
73586;DHT22;61865;50.232;18.614;2023-04-12T10:19:17;12.00;72.40
73586;DHT22;61865;50.232;18.614;2023-04-12T10:21:40;11.80;76.10
73586;DHT22;61865;50.232;18.614;2023-04-12T10:24:06;11.20;74.60
73586;DHT22;61865;50.232;18.614;2023-04-12T10:26:28;11.10;78.00
73586;DHT22;61865;50.232;18.614;2023-04-12T10:29:26;11.60;83.70
73586;DHT22;61865;50.232;18.614;2023-04-12T10:31:49;12.10;76.20
73586;DHT22;61865;50.232;18.614;2023-04-12T10:34:11;12.50;71.50
73586;DHT22;61865;50.232;18.614;2023-04-12T10:36:52;12.40;69.50
73586;DHT22;61865;50.232;18.614;2023-04-12T10:39:15;12.50;72.50
73586;DHT22;61865;50.232;18.614;2023-04-12T10:41:37;12.90;70.30
73586;DHT22;61865;50.232;18.614;2023-04-12T10:44:24;13.10;67.40
73586;DHT22;61865;50.232;18.614;2023-04-12T10:46:49;13.20;67.90
73586;DHT22;61865;50.232;18.614;2023-04-12T10:49:13;13.10;65.60
73586;DHT22;61865;50.232;18.614;2023-04-12T10:51:36;12.90;62.70
73586;DHT22;61865;50.232;18.614;2023-04-12T10:54:32;13.20;66.20
73586;DHT22;61865;50.232;18.614;2023-04-12T10:56:55;13.50;66.50
73586;DHT22;61865;50.232;18.614;2023-04-12T10:59:18;13.90;63.70
73586;DHT22;61865;50.232;18.614;2023-04-12T11:01:41;13.80;66.40
73586;DHT22;61865;50.232;18.614;2023-04-12T11:04:11;13.10;66.30
73586;DHT22;61865;50.232;18.614;2023-04-12T11:06:41;13.60;65.60
73586;DHT22;61865;50.232;18.614;2023-04-12T11:09:03;14.20;62.00
73586;DHT22;61865;50.232;18.614;2023-04-12T11:11:27;13.60;63.40
73586;DHT22;61865;50.232;18.614;2023-04-12T11:13:54;12.80;67.20
73586;DHT22;61865;50.232;18.614;2023-04-12T11:16:18;12.50;67.50
73586;DHT22;61865;50.232;18.614;2023-04-12T11:18:40;12.10;66.00
73586;DHT22;61865;50.232;18.614;2023-04-12T11:21:07;11.80;68.30
73586;DHT22;61865;50.232;18.614;2023-04-12T11:23:30;11.70;70.50
73586;DHT22;61865;50.232;18.614;2023-04-12T11:25:52;12.10;70.90
73586;DHT22;61865;50.232;18.614;2023-04-12T11:28:17;12.40;67.10
73586;DHT22;61865;50.232;18.614;2023-04-12T11:30:48;12.60;66.30
73586;DHT22;61865;50.232;18.614;2023-04-12T11:33:10;12.90;62.80
73586;DHT22;61865;50.232;18.614;2023-04-12T11:35:32;13.20;61.40
73586;DHT22;61865;50.232;18.614;2023-04-12T11:37:54;13.30;64.00
73586;DHT22;61865;50.232;18.614;2023-04-12T11:40:17;13.50;60.50
73586;DHT22;61865;50.232;18.614;2023-04-12T11:42:39;13.70;60.20
73586;DHT22;61865;50.232;18.614;2023-04-12T11:45:03;13.60;58.90
73586;DHT22;61865;50.232;18.614;2023-04-12T11:47:26;13.30;58.60
73586;DHT22;61865;50.232;18.614;2023-04-12T11:49:49;13.20;59.10
73586;DHT22;61865;50.232;18.614;2023-04-12T11:52:12;13.20;58.80
73586;DHT22;61865;50.232;18.614;2023-04-12T11:54:35;13.00;63.00
73586;DHT22;61865;50.232;18.614;2023-04-12T11:56:57;13.30;63.00
73586;DHT22;61865;50.232;18.614;2023-04-12T11:59:19;13.50;63.30
73586;DHT22;61865;50.232;18.614;2023-04-12T12:01:42;13.60;64.70
73586;DHT22;61865;50.232;18.614;2023-04-12T12:04:04;13.70;62.00
73586;DHT22;61865;50.232;18.614;2023-04-12T12:06:26;13.70;61.90
73586;DHT22;61865;50.232;18.614;2023-04-12T12:08:48;13.80;61.40
73586;DHT22;61865;50.232;18.614;2023-04-12T12:11:11;13.90;61.70
73586;DHT22;61865;50.232;18.614;2023-04-12T12:13:43;14.00;62.50
73586;DHT22;61865;50.232;18.614;2023-04-12T12:16:06;13.70;60.60
73586;DHT22;61865;50.232;18.614;2023-04-12T12:18:30;13.40;62.00
73586;DHT22;61865;50.232;18.614;2023-04-12T12:20:52;13.00;61.20
73586;DHT22;61865;50.232;18.614;2023-04-12T12:23:27;13.00;61.80
73586;DHT22;61865;50.232;18.614;2023-04-12T12:25:49;13.30;63.20
73586;DHT22;61865;50.232;18.614;2023-04-12T12:28:11;13.50;63.10
73586;DHT22;61865;50.232;18.614;2023-04-12T12:30:37;13.40;60.80
73586;DHT22;61865;50.232;18.614;2023-04-12T12:33:00;13.40;60.30
73586;DHT22;61865;50.232;18.614;2023-04-12T12:35:24;13.60;58.60
73586;DHT22;61865;50.232;18.614;2023-04-12T12:37:48;13.80;56.80
73586;DHT22;61865;50.232;18.614;2023-04-12T12:40:11;14.00;57.00
73586;DHT22;61865;50.232;18.614;2023-04-12T12:42:34;13.90;58.60
73586;DHT22;61865;50.232;18.614;2023-04-12T12:44:55;13.70;59.70
73586;DHT22;61865;50.232;18.614;2023-04-12T12:47:17;13.60;56.90
73586;DHT22;61865;50.232;18.614;2023-04-12T12:49:39;13.20;58.20
73586;DHT22;61865;50.232;18.614;2023-04-12T12:52:04;13.30;61.70
73586;DHT22;61865;50.232;18.614;2023-04-12T12:54:25;13.50;58.50
73586;DHT22;61865;50.232;18.614;2023-04-12T12:56:48;13.80;60.00
73586;DHT22;61865;50.232;18.614;2023-04-12T12:59:10;14.10;56.50
73586;DHT22;61865;50.232;18.614;2023-04-12T13:01:32;14.60;52.80
73586;DHT22;61865;50.232;18.614;2023-04-12T13:03:54;15.10;52.50
73586;DHT22;61865;50.232;18.614;2023-04-12T13:06:18;15.30;52.10
73586;DHT22;61865;50.232;18.614;2023-04-12T13:08:41;15.20;51.50
73586;DHT22;61865;50.232;18.614;2023-04-12T13:11:03;15.10;51.20
73586;DHT22;61865;50.232;18.614;2023-04-12T13:13:25;14.60;50.30
73586;DHT22;61865;50.232;18.614;2023-04-12T13:15:47;14.40;52.00
73586;DHT22;61865;50.232;18.614;2023-04-12T13:18:12;13.60;50.80
73586;DHT22;61865;50.232;18.614;2023-04-12T13:20:36;13.30;54.50
73586;DHT22;61865;50.232;18.614;2023-04-12T13:22:58;13.10;54.90
73586;DHT22;61865;50.232;18.614;2023-04-12T13:25:22;13.40;56.70
73586;DHT22;61865;50.232;18.614;2023-04-12T13:27:44;13.90;54.80
73586;DHT22;61865;50.232;18.614;2023-04-12T13:30:07;14.20;53.90
73586;DHT22;61865;50.232;18.614;2023-04-12T13:32:29;14.20;54.00
73586;DHT22;61865;50.232;18.614;2023-04-12T13:34:51;14.20;53.10
73586;DHT22;61865;50.232;18.614;2023-04-12T13:37:13;14.00;53.50
73586;DHT22;61865;50.232;18.614;2023-04-12T13:39:35;14.10;53.40
73586;DHT22;61865;50.232;18.614;2023-04-12T13:42:00;13.90;52.60
73586;DHT22;61865;50.232;18.614;2023-04-12T13:44:22;13.80;56.80
73586;DHT22;61865;50.232;18.614;2023-04-12T13:46:46;13.80;53.60
73586;DHT22;61865;50.232;18.614;2023-04-12T13:49:08;13.80;55.10
73586;DHT22;61865;50.232;18.614;2023-04-12T13:51:30;13.80;54.60
73586;DHT22;61865;50.232;18.614;2023-04-12T13:53:53;13.80;54.30
73586;DHT22;61865;50.232;18.614;2023-04-12T13:56:15;13.80;54.70
73586;DHT22;61865;50.232;18.614;2023-04-12T13:58:39;13.90;55.90
73586;DHT22;61865;50.232;18.614;2023-04-12T14:01:01;14.00;54.10
73586;DHT22;61865;50.232;18.614;2023-04-12T14:03:23;14.00;55.00
73586;DHT22;61865;50.232;18.614;2023-04-12T14:05:45;13.80;53.60
73586;DHT22;61865;50.232;18.614;2023-04-12T14:08:06;13.80;56.20
73586;DHT22;61865;50.232;18.614;2023-04-12T14:10:28;13.90;54.50
73586;DHT22;61865;50.232;18.614;2023-04-12T14:12:50;13.90;53.20
73586;DHT22;61865;50.232;18.614;2023-04-12T14:15:13;13.80;53.60
73586;DHT22;61865;50.232;18.614;2023-04-12T14:17:36;13.60;54.60
73586;DHT22;61865;50.232;18.614;2023-04-12T14:19:59;13.60;54.70
73586;DHT22;61865;50.232;18.614;2023-04-12T14:22:21;13.60;55.50
73586;DHT22;61865;50.232;18.614;2023-04-12T14:24:43;13.60;55.20
73586;DHT22;61865;50.232;18.614;2023-04-12T14:27:05;13.60;55.20
73586;DHT22;61865;50.232;18.614;2023-04-12T14:29:27;13.50;54.10
73586;DHT22;61865;50.232;18.614;2023-04-12T14:31:50;13.50;55.10
73586;DHT22;61865;50.232;18.614;2023-04-12T14:34:12;13.50;54.70
73586;DHT22;61865;50.232;18.614;2023-04-12T14:36:34;13.60;54.90
73586;DHT22;61865;50.232;18.614;2023-04-12T14:38:56;13.40;52.30
73586;DHT22;61865;50.232;18.614;2023-04-12T14:41:18;13.40;54.90
73586;DHT22;61865;50.232;18.614;2023-04-12T14:43:40;13.40;55.70
73586;DHT22;61865;50.232;18.614;2023-04-12T14:46:02;13.40;56.60
73586;DHT22;61865;50.232;18.614;2023-04-12T14:48:25;13.40;55.30
73586;DHT22;61865;50.232;18.614;2023-04-12T14:50:47;13.30;55.20
73586;DHT22;61865;50.232;18.614;2023-04-12T14:53:09;13.20;55.10
73586;DHT22;61865;50.232;18.614;2023-04-12T14:55:33;13.10;54.80
73586;DHT22;61865;50.232;18.614;2023-04-12T14:57:55;12.90;54.10
73586;DHT22;61865;50.232;18.614;2023-04-12T15:00:17;12.80;53.50